Time;durP1;ratioP1;P1;durP2;ratioP2;P2;SDS_P1;SDS_P2;PMS_P1;PMS_P2;Temp;Humidity;BMP_temperature;BMP_pressure;BME280_temperature;BME280_humidity;BME280_pressure;Samples;Min_cycle;Max_cycle;Signal;HPM_P1;HPM_P2
2022/09/02 00:01:54;;;;;;;;;;;;;;;28.45;47.34;100722.11;104887;1304;62201;-81
2022/09/02 00:04:21;;;;;;;;;;;;;;;28.45;47.37;100719.73;104852;1304;62049;-83
2022/09/02 00:06:47;;;;;;;;;;;;;;;28.45;47.37;100722.66;104849;1304;62057;-83
2022/09/02 00:09:14;;;;;;;;;;;;;;;28.45;47.50;100722.15;104845;1304;62100;-81
2022/09/02 00:11:40;;;;;;;;;;;;;;;28.46;47.24;100726.42;104837;1305;62101;-81
2022/09/02 00:14:07;;;;;;;;;;;;;;;28.45;47.29;100727.58;104875;1304;62124;-82
2022/09/02 00:16:32;;;;;;;;;;;;;;;28.44;47.23;100729.45;104831;1303;62098;-82
2022/09/02 00:18:58;;;;;;;;;;;;;;;28.44;47.40;100728.36;104914;1304;63304;-83
2022/09/02 00:21:24;;;;;;;;;;;;;;;28.44;47.33;100726.35;104855;1304;62218;-83
2022/09/02 00:23:50;;;;;;;;;;;;;;;28.43;47.32;100721.36;104697;1303;61968;-81
2022/09/02 00:26:15;;;;;;;;;;;;;;;28.44;47.44;100719.70;104611;1305;62123;-82
2022/09/02 00:28:41;;;;;;;;;;;;;;;28.44;47.47;100714.62;104647;1303;62088;-82
2022/09/02 00:31:06;;;;;;;;;;;;;;;28.43;47.43;100715.59;104622;1305;62052;-80
2022/09/02 00:33:32;;;;;;;;;;;;;;;28.44;47.34;100715.16;104699;1304;62156;-83
2022/09/02 00:35:58;;;;;;;;;;;;;;;28.44;47.31;100713.52;104646;1305;62090;-81
2022/09/02 00:38:24;;;;;;;;;;;;;;;28.45;47.52;100716.71;104718;1305;73672;-81
2022/09/02 00:40:49;;;;;;;;;;;;;;;28.44;47.52;100717.46;104739;1305;62214;-82
2022/09/02 00:43:33;;;;;;;;;;;;;;;28.45;47.53;100720.30;104589;1305;62197;-81
2022/09/02 00:45:59;;;;;;;;;;;;;;;28.45;47.50;100719.94;104607;1304;62019;-81
2022/09/02 00:48:26;;;;;;;;;;;;;;;28.45;47.40;100721.94;104623;1304;61988;-81
2022/09/02 00:50:51;;;;;;;;;;;;;;;28.45;47.48;100721.36;104783;1306;62139;-81
2022/09/02 00:53:16;;;;;;;;;;;;;;;28.45;47.48;100722.31;104623;1305;62151;-82
2022/09/02 00:55:44;;;;;;;;;;;;;;;28.45;47.45;100730.56;104692;1303;62068;-82
2022/09/02 00:58:16;;;;;;;;;;;;;;;28.45;47.30;100736.74;104850;1305;62894;-83
2022/09/02 01:00:43;;;;;;;;;;;;;;;28.46;47.42;100735.83;104854;1305;76346;-83
2022/09/02 01:03:10;;;;;;;;;;;;;;;28.45;47.30;100738.58;104839;1306;62064;-82
2022/09/02 01:05:36;;;;;;;;;;;;;;;28.45;47.37;100744.05;104853;1305;62007;-82
2022/09/02 01:08:06;;;;;;;;;;;;;;;28.45;47.41;100747.66;104874;1305;61909;-82
2022/09/02 01:10:35;;;;;;;;;;;;;;;28.45;47.30;100748.95;104821;1305;76551;-82
2022/09/02 01:13:07;;;;;;;;;;;;;;;28.43;47.19;100747.09;104826;1305;62214;-82
2022/09/02 01:15:35;;;;;;;;;;;;;;;28.43;47.10;100750.34;104837;1304;62010;-83
2022/09/02 01:18:00;;;;;;;;;;;;;;;28.42;47.26;100750.23;104870;1304;72681;-82
2022/09/02 01:20:27;;;;;;;;;;;;;;;28.42;47.17;100753.86;104840;1303;62067;-83
2022/09/02 01:22:53;;;;;;;;;;;;;;;28.42;47.20;100754.44;104847;1303;62294;-82
2022/09/02 01:25:20;;;;;;;;;;;;;;;28.41;47.12;100759.39;104852;1305;62095;-83
2022/09/02 01:27:47;;;;;;;;;;;;;;;28.42;47.13;100756.85;104868;1305;62196;-83
2022/09/02 01:30:15;;;;;;;;;;;;;;;28.41;47.30;100761.02;104819;1305;62022;-82
2022/09/02 01:32:40;;;;;;;;;;;;;;;28.41;47.09;100754.02;104873;1305;61973;-82
2022/09/02 01:35:06;;;;;;;;;;;;;;;28.40;47.14;100756.23;104846;1304;62137;-81
2022/09/02 01:37:32;;;;;;;;;;;;;;;28.40;47.18;100756.44;104855;1305;62126;-82
2022/09/02 01:39:57;;;;;;;;;;;;;;;28.40;47.07;100756.64;104851;1306;62091;-80
2022/09/02 01:42:23;;;;;;;;;;;;;;;28.40;47.32;100756.17;104905;1305;62108;-80
2022/09/02 01:44:48;;;;;;;;;;;;;;;28.39;47.04;100754.91;104881;1305;61963;-83
2022/09/02 01:47:14;;;;;;;;;;;;;;;28.39;47.19;100756.39;104888;1305;62330;-81
2022/09/02 01:49:40;;;;;;;;;;;;;;;28.39;47.09;100757.30;104856;1306;62212;-82
2022/09/02 01:52:05;;;;;;;;;;;;;;;28.39;47.04;100759.11;104864;1305;60137;-82
2022/09/02 01:54:31;;;;;;;;;;;;;;;28.39;47.35;100757.88;104907;1304;62237;-82
2022/09/02 01:56:56;;;;;;;;;;;;;;;28.38;47.07;100758.24;104969;1304;62069;-82
2022/09/02 01:59:22;;;;;;;;;;;;;;;28.38;47.14;100767.47;104956;1304;62184;-82
2022/09/02 02:01:47;;;;;;;;;;;;;;;28.38;47.22;100764.05;104835;1305;62110;-83
2022/09/02 02:04:12;;;;;;;;;;;;;;;28.38;47.26;100763.55;104838;1305;62106;-82
2022/09/02 02:06:39;;;;;;;;;;;;;;;28.38;47.08;100762.80;104843;1305;62205;-82
2022/09/02 02:09:05;;;;;;;;;;;;;;;28.38;47.06;100763.58;104881;1305;62174;-82
2022/09/02 02:11:30;;;;;;;;;;;;;;;28.38;47.14;100764.84;104914;1304;62092;-82
2022/09/02 02:13:56;;;;;;;;;;;;;;;28.38;47.04;100764.86;104849;1305;73068;-81
2022/09/02 02:16:21;;;;;;;;;;;;;;;28.37;47.19;100764.70;104884;1304;62102;-81
2022/09/02 02:18:47;;;;;;;;;;;;;;;28.37;47.13;100760.76;104825;1305;62130;-81
2022/09/02 02:21:12;;;;;;;;;;;;;;;28.37;47.08;100753.85;104897;1305;62088;-83
2022/09/02 02:23:38;;;;;;;;;;;;;;;28.36;47.11;100752.67;104923;1305;62072;-83
2022/09/02 02:26:03;;;;;;;;;;;;;;;28.37;46.94;100750.48;104852;1305;71878;-82
2022/09/02 02:28:29;;;;;;;;;;;;;;;28.37;47.00;100751.02;104898;1303;62171;-83
2022/09/02 02:30:55;;;;;;;;;;;;;;;28.36;47.06;100751.77;104862;1304;62104;-83
2022/09/02 02:33:22;;;;;;;;;;;;;;;28.36;47.01;100747.30;104848;1305;62241;-83
2022/09/02 02:35:47;;;;;;;;;;;;;;;28.36;47.06;100751.79;104828;1305;60906;-83
2022/09/02 02:38:13;;;;;;;;;;;;;;;28.36;47.19;100750.22;104823;1305;62096;-83
2022/09/02 02:40:38;;;;;;;;;;;;;;;28.36;46.99;100750.55;104886;1305;62031;-82
2022/09/02 02:43:04;;;;;;;;;;;;;;;28.35;47.13;100750.62;104887;1305;62144;-82
2022/09/02 02:45:29;;;;;;;;;;;;;;;28.35;46.98;100748.48;104847;1305;62094;-82
2022/09/02 02:47:55;;;;;;;;;;;;;;;28.35;47.31;100751.17;104856;1303;63016;-81
2022/09/02 02:50:20;;;;;;;;;;;;;;;28.35;47.10;100748.11;104848;1305;62170;-82
2022/09/02 02:52:47;;;;;;;;;;;;;;;28.35;47.14;100746.31;104893;1305;62136;-83
2022/09/02 02:55:13;;;;;;;;;;;;;;;28.35;47.07;100745.27;104862;1304;62423;-82
2022/09/02 02:57:39;;;;;;;;;;;;;;;28.35;47.15;100748.69;104859;1305;62119;-81
2022/09/02 03:00:06;;;;;;;;;;;;;;;28.34;47.31;100751.27;104853;1304;62092;-82
2022/09/02 03:02:33;;;;;;;;;;;;;;;28.35;47.04;100753.08;104855;1305;62000;-82
2022/09/02 03:05:00;;;;;;;;;;;;;;;28.34;47.01;100752.59;104887;1305;61986;-81
2022/09/02 03:07:26;;;;;;;;;;;;;;;28.34;47.24;100752.55;103680;1304;1594071;-81
2022/09/02 03:09:52;;;;;;;;;;;;;;;28.33;47.10;100756.80;104847;1304;62062;-84
2022/09/02 03:12:17;;;;;;;;;;;;;;;28.33;47.08;100760.05;104856;1306;62094;-82
2022/09/02 03:14:43;;;;;;;;;;;;;;;28.34;46.93;100761.48;104847;1304;62170;-82
2022/09/02 03:17:09;;;;;;;;;;;;;;;28.34;47.05;100762.77;104860;1304;62095;-82
2022/09/02 03:19:34;;;;;;;;;;;;;;;28.33;46.93;100768.40;104892;1303;62723;-81
2022/09/02 03:22:00;;;;;;;;;;;;;;;28.34;47.01;100766.36;104930;1304;62200;-81
2022/09/02 03:24:25;;;;;;;;;;;;;;;28.33;47.08;100763.71;104859;1305;62068;-82
2022/09/02 03:26:51;;;;;;;;;;;;;;;28.33;47.07;100765.37;104823;1303;62211;-84
2022/09/02 03:29:17;;;;;;;;;;;;;;;28.32;47.18;100767.40;104872;1305;62109;-82
2022/09/02 03:31:42;;;;;;;;;;;;;;;28.32;47.20;100770.13;104902;1304;62053;-81
2022/09/02 03:34:08;;;;;;;;;;;;;;;28.32;47.03;100774.84;104903;1305;62101;-83
2022/09/02 03:36:34;;;;;;;;;;;;;;;28.32;46.94;100781.00;104860;1304;62213;-83
2022/09/02 03:39:00;;;;;;;;;;;;;;;28.32;47.12;100781.24;104883;1304;64347;-82
2022/09/02 03:41:26;;;;;;;;;;;;;;;28.31;47.04;100781.82;104860;1304;62103;-82
2022/09/02 03:43:51;;;;;;;;;;;;;;;28.31;46.93;100781.64;104861;1304;62088;-80
2022/09/02 03:46:17;;;;;;;;;;;;;;;28.30;46.97;100786.42;104839;1303;62063;-82
2022/09/02 03:48:43;;;;;;;;;;;;;;;28.29;46.76;100783.86;104852;1305;61951;-81
2022/09/02 03:51:09;;;;;;;;;;;;;;;28.28;46.46;100789.80;104909;1304;62155;-82
2022/09/02 03:53:34;;;;;;;;;;;;;;;28.25;46.28;100794.91;104929;1304;61983;-82
2022/09/02 03:56:07;;;;;;;;;;;;;;;28.24;46.17;100800.66;104858;1303;62047;-82
2022/09/02 03:58:32;;;;;;;;;;;;;;;28.22;46.04;100803.23;104849;1304;75760;-82
2022/09/02 04:00:58;;;;;;;;;;;;;;;28.21;45.64;100807.14;104882;1304;62092;-84
2022/09/02 04:03:23;;;;;;;;;;;;;;;28.19;45.30;100806.56;104862;1304;62093;-83
2022/09/02 04:05:50;;;;;;;;;;;;;;;28.18;45.16;100806.72;104828;1303;62188;-83
2022/09/02 04:08:16;;;;;;;;;;;;;;;28.16;45.02;100797.87;104635;1303;62057;-81
2022/09/02 04:10:43;;;;;;;;;;;;;;;28.14;44.94;100800.71;104617;1305;62207;-81
2022/09/02 04:13:09;;;;;;;;;;;;;;;28.13;44.60;100803.62;104607;1305;62075;-82
2022/09/02 04:15:37;;;;;;;;;;;;;;;28.12;44.42;100804.92;104638;1304;62052;-82
2022/09/02 04:18:03;;;;;;;;;;;;;;;28.11;44.39;100801.44;104786;1304;62139;-82
2022/09/02 04:20:28;;;;;;;;;;;;;;;28.09;43.76;100802.11;104594;1305;62238;-81
2022/09/02 04:22:54;;;;;;;;;;;;;;;28.09;43.60;100808.50;104771;1306;62069;-81
2022/09/02 04:25:19;;;;;;;;;;;;;;;28.07;43.48;100812.77;104846;1303;62258;-80
2022/09/02 04:27:45;;;;;;;;;;;;;;;28.08;43.45;100809.88;104632;1306;62181;-81
2022/09/02 04:30:15;;;;;;;;;;;;;;;28.07;42.97;100807.41;104647;1304;62231;-81
2022/09/02 04:32:40;;;;;;;;;;;;;;;28.07;42.95;100811.04;104634;1305;62222;-81
2022/09/02 04:35:07;;;;;;;;;;;;;;;28.07;42.59;100809.94;104598;1305;62088;-79
2022/09/02 04:37:32;;;;;;;;;;;;;;;28.07;42.58;100813.05;104424;1304;62101;-81
2022/09/02 04:39:59;;;;;;;;;;;;;;;28.07;42.60;100813.05;104258;1305;62155;-79
2022/09/02 04:42:24;;;;;;;;;;;;;;;28.08;42.32;100814.95;104498;1306;62116;-81
2022/09/02 04:44:51;;;;;;;;;;;;;;;28.08;41.93;100811.08;104634;1305;60174;-81
2022/09/02 04:47:17;;;;;;;;;;;;;;;28.08;42.18;100809.98;104740;1305;62092;-81
2022/09/02 04:49:42;;;;;;;;;;;;;;;28.09;41.83;100811.20;104832;1304;62062;-80
2022/09/02 04:52:09;;;;;;;;;;;;;;;28.09;41.90;100811.38;104880;1305;62251;-80
2022/09/02 04:54:35;;;;;;;;;;;;;;;28.09;41.56;100814.82;104596;1305;62140;-81
2022/09/02 04:57:01;;;;;;;;;;;;;;;28.09;41.36;100815.52;104344;1306;62151;-81
2022/09/02 04:59:26;;;;;;;;;;;;;;;28.09;41.34;100819.89;104252;1305;62293;-82
2022/09/02 05:01:52;;;;;;;;;;;;;;;28.09;41.17;100823.83;104076;1305;62075;-81
2022/09/02 05:04:18;;;;;;;;;;;;;;;28.09;41.35;100825.07;104645;1305;62760;-81
2022/09/02 05:06:45;;;;;;;;;;;;;;;28.10;41.20;100831.20;104631;1305;62184;-82
2022/09/02 05:09:11;;;;;;;;;;;;;;;28.10;41.09;100834.66;104604;1305;62890;-80
2022/09/02 05:11:37;;;;;;;;;;;;;;;28.09;40.91;100839.17;104626;1304;62065;-80
2022/09/02 05:14:03;;;;;;;;;;;;;;;28.09;40.73;100837.95;104563;1305;62175;-81
2022/09/02 05:16:30;;;;;;;;;;;;;;;28.08;40.58;100838.79;104535;1305;62190;-82
2022/09/02 05:18:56;;;;;;;;;;;;;;;28.07;40.36;100840.66;104473;1304;62098;-81
2022/09/02 05:21:22;;;;;;;;;;;;;;;28.08;40.34;100846.93;104416;1302;62144;-82
2022/09/02 05:23:48;;;;;;;;;;;;;;;28.08;40.09;100840.76;104359;1302;62058;-83
2022/09/02 05:26:14;;;;;;;;;;;;;;;28.08;40.19;100845.64;104266;1303;62087;-80
2022/09/02 05:28:40;;;;;;;;;;;;;;;28.08;39.98;100845.61;104569;1303;62113;-80
2022/09/02 05:31:06;;;;;;;;;;;;;;;28.09;40.08;100850.98;104435;1305;62106;-80
2022/09/02 05:33:37;;;;;;;;;;;;;;;28.09;39.89;100846.44;104335;1305;62125;-81
2022/09/02 05:36:03;;;;;;;;;;;;;;;28.10;39.85;100846.77;104349;1305;62137;-81
2022/09/02 05:38:29;;;;;;;;;;;;;;;28.09;39.96;100842.15;104317;1305;62190;-80
2022/09/02 05:40:56;;;;;;;;;;;;;;;28.08;39.52;100846.39;104220;1303;62107;-80
2022/09/02 05:43:21;;;;;;;;;;;;;;;28.06;39.72;100848.55;104426;1303;62362;-82
2022/09/02 05:45:47;;;;;;;;;;;;;;;28.04;39.38;100852.05;104361;1304;62171;-81
2022/09/02 05:50:57;;;;;;;;;;;;;;;28.04;39.27;100856.05;104256;1305;74119;-80
2022/09/02 05:53:25;;;;;;;;;;;;;;;28.04;39.50;100858.86;104360;1305;62143;-80
2022/09/02 05:55:51;;;;;;;;;;;;;;;28.05;38.83;100859.03;104345;1305;62069;-81
2022/09/02 05:58:16;;;;;;;;;;;;;;;28.04;39.11;100857.61;104299;1305;62067;-82
2022/09/02 06:00:42;;;;;;;;;;;;;;;28.04;38.93;100854.94;104405;1302;62113;-81
2022/09/02 06:03:08;;;;;;;;;;;;;;;28.03;38.79;100857.60;104389;1303;62243;-82
2022/09/02 06:05:37;;;;;;;;;;;;;;;28.02;38.69;100854.94;104275;1303;62105;-81
2022/09/02 06:08:02;;;;;;;;;;;;;;;28.02;38.56;100849.48;104539;1305;62193;-80
2022/09/02 06:10:28;;;;;;;;;;;;;;;28.02;38.48;100846.85;104429;1305;62097;-81
2022/09/02 06:12:53;;;;;;;;;;;;;;;28.02;38.49;100848.05;104500;1305;62059;-81
2022/09/02 06:15:19;;;;;;;;;;;;;;;28.02;38.44;100847.00;104523;1304;62133;-81
2022/09/02 06:17:45;;;;;;;;;;;;;;;28.02;38.39;100850.91;104393;1305;62291;-83
2022/09/02 06:20:10;;;;;;;;;;;;;;;28.03;38.23;100854.81;104613;1305;62076;-81
2022/09/02 06:22:36;;;;;;;;;;;;;;;28.02;38.17;100850.73;104638;1305;62097;-83
2022/09/02 06:25:01;;;;;;;;;;;;;;;28.00;38.04;100855.72;104568;1305;62838;-82
2022/09/02 06:27:26;;;;;;;;;;;;;;;27.98;37.82;100858.63;104468;1303;62121;-80
2022/09/02 06:29:53;;;;;;;;;;;;;;;27.96;38.05;100861.16;104526;1305;61983;-81
2022/09/02 06:32:19;;;;;;;;;;;;;;;27.95;38.01;100862.70;104542;1303;62068;-81
2022/09/02 06:34:44;;;;;;;;;;;;;;;27.93;37.81;100862.35;104523;1302;62187;-82
2022/09/02 06:37:10;;;;;;;;;;;;;;;27.90;37.77;100858.60;104556;1302;62524;-81
2022/09/02 06:39:36;;;;;;;;;;;;;;;27.87;37.60;100861.61;104504;1303;62109;-82
2022/09/02 06:42:03;;;;;;;;;;;;;;;27.86;37.76;100859.07;104412;1302;62144;-84
2022/09/02 06:44:29;;;;;;;;;;;;;;;27.86;37.70;100865.06;104447;1303;62247;-82
2022/09/02 06:46:55;;;;;;;;;;;;;;;27.83;37.74;100867.47;104592;1302;62144;-80
2022/09/02 06:49:22;;;;;;;;;;;;;;;27.81;37.46;100867.34;104566;1303;63288;-81
2022/09/02 06:51:48;;;;;;;;;;;;;;;27.80;37.36;100871.00;104372;1303;62098;-79
2022/09/02 06:54:15;;;;;;;;;;;;;;;27.81;37.57;100871.55;104386;1305;62102;-82
2022/09/02 06:56:41;;;;;;;;;;;;;;;27.77;37.42;100873.86;104510;1305;62173;-81
2022/09/02 06:59:06;;;;;;;;;;;;;;;27.75;37.30;100865.21;104480;1304;62222;-81
2022/09/02 07:01:32;;;;;;;;;;;;;;;27.72;36.95;100860.61;104260;1303;62016;-81
2022/09/02 07:06:46;;;;;;;;;;;;;;;27.72;36.94;100853.73;104303;1303;72707;-82
2022/09/02 07:09:13;;;;;;;;;;;;;;;27.72;37.22;100856.81;104439;1303;75578;-81
2022/09/02 07:11:39;;;;;;;;;;;;;;;27.71;36.92;100863.06;104579;1303;62109;-81
2022/09/02 07:14:04;;;;;;;;;;;;;;;27.71;36.90;100864.11;104578;1305;62545;-82
2022/09/02 07:16:36;;;;;;;;;;;;;;;27.71;36.70;100864.33;104386;1303;62078;-82
2022/09/02 07:19:01;;;;;;;;;;;;;;;27.69;36.70;100860.56;104513;1302;75680;-82
2022/09/02 07:21:27;;;;;;;;;;;;;;;27.68;36.45;100859.57;104381;1303;62075;-83
2022/09/02 07:23:54;;;;;;;;;;;;;;;27.68;36.71;100864.24;104530;1303;62129;-81
2022/09/02 07:26:20;;;;;;;;;;;;;;;27.69;36.41;100860.33;104627;1303;62200;-83
2022/09/02 07:28:45;;;;;;;;;;;;;;;27.70;36.62;100863.50;104450;1303;60304;-81
2022/09/02 07:31:12;;;;;;;;;;;;;;;27.71;36.40;100865.77;104533;1305;62199;-82
2022/09/02 07:33:38;;;;;;;;;;;;;;;27.70;36.64;100869.16;104438;1305;62233;-81
2022/09/02 07:36:04;;;;;;;;;;;;;;;27.70;36.56;100872.15;104620;1303;62080;-79
2022/09/02 07:38:30;;;;;;;;;;;;;;;27.71;36.36;100867.04;104692;1302;62226;-82
2022/09/02 07:40:55;;;;;;;;;;;;;;;27.71;36.35;100871.57;104366;1305;74425;-80
2022/09/02 07:43:21;;;;;;;;;;;;;;;27.70;36.31;100869.81;104422;1305;62179;-82
2022/09/02 07:45:49;;;;;;;;;;;;;;;27.71;36.21;100869.23;104238;1303;62780;-82
2022/09/02 07:48:15;;;;;;;;;;;;;;;27.71;36.41;100866.19;104296;1306;72870;-81
2022/09/02 07:50:41;;;;;;;;;;;;;;;27.70;36.26;100871.83;104430;1305;62272;-80
2022/09/02 07:53:07;;;;;;;;;;;;;;;27.70;36.49;100867.30;104384;1306;62194;-81
2022/09/02 07:55:34;;;;;;;;;;;;;;;27.70;36.12;100870.89;104298;1305;64322;-81
2022/09/02 07:57:59;;;;;;;;;;;;;;;27.71;36.11;100872.63;104428;1305;61985;-83
2022/09/02 08:00:26;;;;;;;;;;;;;;;27.72;36.12;100876.73;104329;1303;62114;-80
2022/09/02 08:02:52;;;;;;;;;;;;;;;27.72;36.29;100881.21;104842;1303;60122;-81
2022/09/02 08:05:17;;;;;;;;;;;;;;;27.72;36.26;100879.42;104279;1303;62065;-81
2022/09/02 08:07:43;;;;;;;;;;;;;;;27.72;36.12;100884.33;104831;1304;62929;-81
2022/09/02 08:10:11;;;;;;;;;;;;;;;27.72;36.14;100889.50;104369;1303;73686;-81
2022/09/02 08:12:38;;;;;;;;;;;;;;;27.73;36.00;100883.81;104279;1303;75681;-81
2022/09/02 08:15:04;;;;;;;;;;;;;;;27.73;36.23;100881.61;104281;1305;61953;-81
2022/09/02 08:17:29;;;;;;;;;;;;;;;27.73;36.06;100880.92;104623;1305;62114;-81
2022/09/02 08:19:55;;;;;;;;;;;;;;;27.74;36.11;100884.66;104680;1303;62062;-81
2022/09/02 08:22:21;;;;;;;;;;;;;;;27.73;36.18;100884.93;104953;1305;62043;-82
2022/09/02 08:24:47;;;;;;;;;;;;;;;27.72;36.17;100879.77;104646;1303;61546;-81
2022/09/02 08:27:12;;;;;;;;;;;;;;;27.73;36.05;100882.92;104650;1304;62249;-82
2022/09/02 08:29:38;;;;;;;;;;;;;;;27.74;35.95;100880.13;104520;1305;62033;-82
2022/09/02 08:32:04;;;;;;;;;;;;;;;27.75;35.86;100881.11;104151;1303;61944;-81
2022/09/02 08:34:30;;;;;;;;;;;;;;;27.77;36.09;100881.65;104222;1303;62082;-83
2022/09/02 08:36:56;;;;;;;;;;;;;;;27.79;35.99;100880.60;104384;1303;62117;-80
2022/09/02 08:39:21;;;;;;;;;;;;;;;27.79;36.22;100878.38;104285;1303;62162;-81
2022/09/02 08:41:51;;;;;;;;;;;;;;;27.79;36.03;100878.71;104298;1303;62173;-81
2022/09/02 08:44:19;;;;;;;;;;;;;;;27.79;36.07;100876.01;104263;1305;76417;-81
2022/09/02 08:46:45;;;;;;;;;;;;;;;27.79;35.95;100873.84;104502;1305;62091;-82
2022/09/02 08:49:13;;;;;;;;;;;;;;;27.78;36.09;100869.47;104463;1304;63479;-81
2022/09/02 08:51:46;;;;;;;;;;;;;;;27.77;36.04;100870.23;104391;1305;72944;-82
2022/09/02 08:54:31;;;;;;;;;;;;;;;27.79;36.08;100865.42;104474;1303;75471;-82
2022/09/02 08:56:57;;;;;;;;;;;;;;;27.80;36.06;100860.38;104363;1305;60256;-82
2022/09/02 08:59:26;;;;;;;;;;;;;;;27.81;36.09;100859.17;105064;1304;62502;-82
2022/09/02 09:01:55;;;;;;;;;;;;;;;27.82;36.00;100859.80;104453;1302;74192;-82
2022/09/02 09:04:26;;;;;;;;;;;;;;;27.83;35.85;100857.37;104470;1303;75792;-80
2022/09/02 09:07:03;;;;;;;;;;;;;;;27.84;35.88;100858.30;104488;1303;62101;-82
2022/09/02 09:09:35;;;;;;;;;;;;;;;27.85;36.21;100860.95;104429;1304;60678;-80
2022/09/02 09:12:19;;;;;;;;;;;;;;;27.86;36.14;100855.66;104590;1306;72835;-81
2022/09/02 09:15:04;;;;;;;;;;;;;;;27.86;36.10;100857.10;104541;1305;76174;-82
2022/09/02 09:17:31;;;;;;;;;;;;;;;27.85;35.92;100856.46;104378;1305;62008;-81
2022/09/02 09:20:01;;;;;;;;;;;;;;;27.85;36.18;100851.21;104576;1303;62001;-80
2022/09/02 09:22:29;;;;;;;;;;;;;;;27.84;36.30;100853.78;104572;1302;72670;-79
2022/09/02 09:24:54;;;;;;;;;;;;;;;27.85;36.07;100843.08;104396;1303;76579;-81
2022/09/02 09:27:20;;;;;;;;;;;;;;;27.84;35.94;100845.10;104505;1306;62133;-80
2022/09/02 09:29:47;;;;;;;;;;;;;;;27.85;36.27;100843.98;104318;1306;62003;-81
2022/09/02 09:32:20;;;;;;;;;;;;;;;27.86;36.26;100844.95;104478;1304;62098;-80
2022/09/02 09:34:50;;;;;;;;;;;;;;;27.86;36.03;100844.52;104649;1305;75394;-82
2022/09/02 09:37:32;;;;;;;;;;;;;;;27.88;36.00;100844.77;104597;1305;62521;-85
2022/09/02 09:39:58;;;;;;;;;;;;;;;27.88;36.19;100843.45;104451;1305;62168;-82
2022/09/02 09:42:31;;;;;;;;;;;;;;;27.88;36.20;100835.52;104535;1305;63023;-82
2022/09/02 09:44:56;;;;;;;;;;;;;;;27.88;36.10;100832.93;104412;1303;75699;-80
2022/09/02 09:47:24;;;;;;;;;;;;;;;27.88;36.29;100831.65;104545;1302;62075;-81
2022/09/02 09:50:10;;;;;;;;;;;;;;;27.89;36.12;100830.34;104632;1303;62087;-80
2022/09/02 09:52:36;;;;;;;;;;;;;;;27.90;36.18;100823.73;104645;1302;74082;-81
2022/09/02 09:55:12;;;;;;;;;;;;;;;27.89;36.07;100818.05;104676;1302;62219;-81
2022/09/02 09:57:38;;;;;;;;;;;;;;;27.90;36.10;100821.80;104529;1306;61986;-81
2022/09/02 10:00:13;;;;;;;;;;;;;;;27.89;36.26;100822.96;104417;1303;61973;-79
2022/09/02 10:02:49;;;;;;;;;;;;;;;27.89;36.41;100820.42;104423;1304;73939;-81
2022/09/02 10:05:23;;;;;;;;;;;;;;;27.89;36.28;100822.22;104431;1303;76482;-80
2022/09/02 10:07:53;;;;;;;;;;;;;;;27.89;36.18;100818.56;104510;1303;62037;-82
2022/09/02 10:10:19;;;;;;;;;;;;;;;27.89;36.20;100818.05;104453;1303;62183;-80
2022/09/02 10:12:45;;;;;;;;;;;;;;;27.88;36.21;100819.30;104469;1302;73596;-80
2022/09/02 10:15:11;;;;;;;;;;;;;;;27.87;36.11;100817.52;104740;1302;62154;-80
2022/09/02 10:17:45;;;;;;;;;;;;;;;27.88;36.05;100819.98;104748;1305;62254;-81
2022/09/02 10:20:12;;;;;;;;;;;;;;;27.88;36.27;100817.98;104687;1305;61983;-81
2022/09/02 10:22:46;;;;;;;;;;;;;;;27.88;35.96;100815.23;104794;1304;73573;-81
2022/09/02 10:25:32;;;;;;;;;;;;;;;27.88;35.94;100813.40;104657;1303;76578;-80
2022/09/02 10:28:17;;;;;;;;;;;;;;;27.88;36.15;100813.78;104108;1309;62069;-79
2022/09/02 10:30:51;;;;;;;;;;;;;;;27.90;35.96;100803.52;104369;1309;62172;-80
2022/09/02 10:33:26;;;;;;;;;;;;;;;27.91;36.03;100800.69;104479;1309;74402;-81
2022/09/02 10:35:55;;;;;;;;;;;;;;;27.92;36.11;100792.39;104442;1309;75559;-81
2022/09/02 10:38:24;;;;;;;;;;;;;;;27.93;36.12;100792.33;104399;1309;62319;-81
2022/09/02 10:40:51;;;;;;;;;;;;;;;27.94;36.17;100786.46;104447;1309;61928;-82
2022/09/02 10:43:31;;;;;;;;;;;;;;;27.95;36.06;100784.16;104437;1309;73757;-82
2022/09/02 10:45:58;;;;;;;;;;;;;;;27.96;36.05;100778.10;104436;1308;75726;-82
2022/09/02 10:48:36;;;;;;;;;;;;;;;27.97;36.03;100774.77;104401;1309;61998;-82
2022/09/02 10:51:10;;;;;;;;;;;;;;;27.98;35.96;100770.57;104474;1308;62123;-79
2022/09/02 10:53:37;;;;;;;;;;;;;;;27.98;36.35;100759.60;104404;1309;73698;-79
2022/09/02 10:56:07;;;;;;;;;;;;;;;28.00;36.26;100758.40;104316;1309;76721;-80
2022/09/02 10:59:11;;;;;;;;;;;;;;;28.01;36.37;100749.58;104248;1310;62107;-81
2022/09/02 11:01:42;;;;;;;;;;;;;;;28.03;36.28;100742.34;104021;1314;62049;-78
2022/09/02 11:04:28;;;;;;;;;;;;;;;28.05;36.37;100739.45;104012;1314;72884;-81
2022/09/02 11:06:54;;;;;;;;;;;;;;;28.06;36.34;100732.23;103834;1316;75393;-79
2022/09/02 11:09:24;;;;;;;;;;;;;;;28.06;36.29;100730.20;103751;1317;62262;-80
2022/09/02 11:11:54;;;;;;;;;;;;;;;28.07;36.17;100727.23;104374;1317;61553;-80
2022/09/02 11:14:33;;;;;;;;;;;;;;;28.08;36.60;100723.52;103939;1316;74269;-81
2022/09/02 11:17:04;;;;;;;;;;;;;;;28.10;36.52;100726.28;103551;1317;76815;-78
2022/09/02 11:19:33;;;;;;;;;;;;;;;28.10;36.54;100721.40;103681;1317;61978;-82
2022/09/02 11:22:12;;;;;;;;;;;;;;;28.09;36.33;100718.17;103567;1317;62092;-81
2022/09/02 11:24:49;;;;;;;;;;;;;;;28.09;36.45;100717.45;103923;1316;72700;-81
2022/09/02 11:27:17;;;;;;;;;;;;;;;28.09;36.56;100712.41;103756;1317;76022;-81
2022/09/02 11:29:48;;;;;;;;;;;;;;;28.10;36.27;100706.38;103995;1316;62121;-81
2022/09/02 11:32:18;;;;;;;;;;;;;;;28.11;36.42;100698.35;103923;1310;62090;-84
2022/09/02 11:34:47;;;;;;;;;;;;;;;28.10;36.32;100695.33;104337;1309;72713;-81
2022/09/02 11:37:25;;;;;;;;;;;;;;;28.09;36.37;100689.82;104436;1309;76773;-79
2022/09/02 11:39:52;;;;;;;;;;;;;;;28.08;36.16;100693.35;104509;1309;62088;-80
2022/09/02 11:42:26;;;;;;;;;;;;;;;28.07;36.33;100695.10;104323;1311;62117;-80
2022/09/02 11:44:57;;;;;;;;;;;;;;;28.06;36.40;100688.99;104557;1303;73714;-81
2022/09/02 11:47:26;;;;;;;;;;;;;;;28.07;36.52;100693.52;104756;1303;76929;-81
2022/09/02 11:50:10;;;;;;;;;;;;;;;28.07;36.38;100689.64;104811;1302;62188;-83
2022/09/02 11:52:52;;;;;;;;;;;;;;;28.08;36.37;100687.20;104746;1303;62038;-81
2022/09/02 11:55:24;;;;;;;;;;;;;;;28.08;36.29;100690.42;104750;1304;73949;-81
2022/09/02 11:57:53;;;;;;;;;;;;;;;28.08;36.36;100697.10;104788;1306;75362;-82
2022/09/02 12:00:29;;;;;;;;;;;;;;;28.09;36.39;100694.16;104739;1303;62142;-82
2022/09/02 12:03:05;;;;;;;;;;;;;;;28.09;36.41;100692.18;104773;1305;62172;-81
2022/09/02 12:05:34;;;;;;;;;;;;;;;28.09;36.25;100694.30;104764;1303;72824;-81
2022/09/02 12:08:12;;;;;;;;;;;;;;;28.09;36.20;100693.21;104613;1305;75476;-81
2022/09/02 12:10:38;;;;;;;;;;;;;;;28.11;36.61;100692.20;104669;1303;62097;-82
2022/09/02 12:13:04;;;;;;;;;;;;;;;28.11;36.35;100691.23;104675;1305;62420;-81
2022/09/02 12:15:30;;;;;;;;;;;;;;;28.12;36.42;100686.65;104691;1306;62105;-81
2022/09/02 12:17:56;;;;;;;;;;;;;;;28.13;36.41;100688.90;104716;1305;62098;-81
2022/09/02 12:20:43;;;;;;;;;;;;;;;28.12;36.64;100690.39;104824;1303;62086;-81
2022/09/02 12:23:27;;;;;;;;;;;;;;;28.12;36.76;100687.90;104744;1305;62059;-81
2022/09/02 12:25:56;;;;;;;;;;;;;;;28.12;36.64;100686.84;104833;1303;72728;-81
2022/09/02 12:28:25;;;;;;;;;;;;;;;28.12;36.55;100673.39;104799;1306;76377;-81
2022/09/02 12:30:54;;;;;;;;;;;;;;;28.12;36.62;100673.39;104879;1303;61917;-79
2022/09/02 12:33:32;;;;;;;;;;;;;;;28.12;36.72;100663.45;104982;1302;62078;-79
2022/09/02 12:35:58;;;;;;;;;;;;;;;28.12;36.65;100665.28;104866;1303;72780;-81